Schieren, Luxembourg
Current Conditions -  °F | °C
As of 3:20 PM on Friday 19 Dec 2014 (Local Time) from ELLX Reporting Station
Light Rain Light Rain  
Wind Chill: 42°   Ceiling: 700
Heat Index: 48°   Visibility: 2.5mi
Dew Point: 48°   Wind: 16mph
Humidity: 100%   Direction: 230°SW
Pressure: 29.97"   Gusts: NA
Location:  49.83°N, 6.1°E
Report Text: ELLX 191420Z 23014KT 190V260 4000 -RA SCT005 BKN007 09/09 Q1015 TEMPO 24020G30KT 4000
Loading
Personal Weather Stations






























Interactive Weather Map New forecast layout! Learn more

10-Day Weather Forecast

Advertisements
Track Severe Weather on mobile